Terminal Aerodrome Forecast
Issued by NWS Charleston, WV

Current Version | Previous Version | Graphics & Text | Print | Product List | Glossary Off
Versions: 1 2 3 4 5 6 7 8 9 10 11 12 13 14 15 16 17 18 19 20 21 22 23 24 25 26

000
FTUS41 KRLX 211700
TAFBKW
TAF
KBKW 211739Z 2118/2218 25008KT P6SM BKN016
     FM211900 26012G22KT P6SM VCSH BKN025
     FM212000 27012G22KT P6SM BKN025
      TEMPO 2120/2123 VRB15G25KT 3SM TSRA BKN020CB
     FM212300 28012G22KT P6SM VCSH BKN025
     FM220000 29012G22KT P6SM BKN025
     FM220400 31009KT P6SM BKN025=

USA.gov is the U.S. government's official web portal to all federal, state and local government web resources and services.